sensor_id;sensor_type;location;lat;lon;timestamp;pressure;altitude;pressure_sealevel;temperature;humidity
61105;BME280;46987;32.638;-115.438;2022-10-17T00:01:17;101335.56;;;24.63;40.11
61105;BME280;46987;32.638;-115.438;2022-10-17T00:03:45;101332.44;;;24.55;40.39
61105;BME280;46987;32.638;-115.438;2022-10-17T00:06:14;101329.91;;;24.48;40.14
61105;BME280;46987;32.638;-115.438;2022-10-17T00:08:43;101328.69;;;24.39;40.77
61105;BME280;46987;32.638;-115.438;2022-10-17T00:11:15;101335.53;;;24.36;40.91
61105;BME280;46987;32.638;-115.438;2022-10-17T00:13:44;101333.78;;;24.30;40.46
61105;BME280;46987;32.638;-115.438;2022-10-17T00:16:11;101332.81;;;24.20;40.57
61105;BME280;46987;32.638;-115.438;2022-10-17T00:18:38;101319.09;;;23.98;40.66
61105;BME280;46987;32.638;-115.438;2022-10-17T00:21:14;101341.13;;;24.08;40.45
61105;BME280;46987;32.638;-115.438;2022-10-17T00:23:42;101334.75;;;24.03;41.12
61105;BME280;46987;32.638;-115.438;2022-10-17T00:26:09;101341.22;;;23.96;41.40
61105;BME280;46987;32.638;-115.438;2022-10-17T00:28:36;101337.00;;;23.89;41.69
61105;BME280;46987;32.638;-115.438;2022-10-17T00:31:04;101331.13;;;23.80;41.34
61105;BME280;46987;32.638;-115.438;2022-10-17T00:33:33;101344.50;;;23.77;41.11
61105;BME280;46987;32.638;-115.438;2022-10-17T00:36:04;101345.00;;;23.74;41.67
61105;BME280;46987;32.638;-115.438;2022-10-17T00:38:34;101340.28;;;23.69;41.86
61105;BME280;46987;32.638;-115.438;2022-10-17T00:41:02;101343.13;;;23.62;42.05
61105;BME280;46987;32.638;-115.438;2022-10-17T00:46:14;101346.28;;;23.54;42.09
61105;BME280;46987;32.638;-115.438;2022-10-17T00:48:41;101342.03;;;23.47;42.04
61105;BME280;46987;32.638;-115.438;2022-10-17T00:51:09;101347.66;;;23.40;41.77
61105;BME280;46987;32.638;-115.438;2022-10-17T00:53:38;101347.59;;;23.35;42.10
61105;BME280;46987;32.638;-115.438;2022-10-17T00:56:06;101342.03;;;23.30;42.23
61105;BME280;46987;32.638;-115.438;2022-10-17T00:58:37;101355.59;;;23.25;42.50
61105;BME280;46987;32.638;-115.438;2022-10-17T01:01:05;101349.22;;;23.19;43.11
61105;BME280;46987;32.638;-115.438;2022-10-17T01:03:33;101355.09;;;23.11;43.49
61105;BME280;46987;32.638;-115.438;2022-10-17T01:06:00;101353.34;;;23.05;44.70
61105;BME280;46987;32.638;-115.438;2022-10-17T01:08:27;101375.34;;;22.99;44.83
61105;BME280;46987;32.638;-115.438;2022-10-17T01:11:02;101358.50;;;22.90;45.17
61105;BME280;46987;32.638;-115.438;2022-10-17T01:13:36;101366.09;;;22.88;45.41
61105;BME280;46987;32.638;-115.438;2022-10-17T01:16:10;101368.13;;;22.81;45.67
61105;BME280;46987;32.638;-115.438;2022-10-17T01:18:49;101365.56;;;22.74;45.31
61105;BME280;46987;32.638;-115.438;2022-10-17T01:21:30;101374.47;;;22.70;45.70
61105;BME280;46987;32.638;-115.438;2022-10-17T01:24:36;101384.00;;;22.67;45.81
61105;BME280;46987;32.638;-115.438;2022-10-17T01:27:48;101381.16;;;22.62;46.41
61105;BME280;46987;32.638;-115.438;2022-10-17T01:33:54;101381.31;;;22.44;46.31
61105;BME280;46987;32.638;-115.438;2022-10-17T01:36:35;101377.59;;;22.38;46.79
61105;BME280;46987;32.638;-115.438;2022-10-17T01:39:14;101376.91;;;22.31;46.93
61105;BME280;46987;32.638;-115.438;2022-10-17T01:41:48;101358.41;;;22.10;46.77
61105;BME280;46987;32.638;-115.438;2022-10-17T01:44:19;101383.47;;;22.19;47.00
61105;BME280;46987;32.638;-115.438;2022-10-17T01:46:50;101373.13;;;22.09;47.22
61105;BME280;46987;32.638;-115.438;2022-10-17T01:49:25;101381.66;;;22.13;47.28
61105;BME280;46987;32.638;-115.438;2022-10-17T01:54:26;101379.63;;;21.96;47.12
61105;BME280;46987;32.638;-115.438;2022-10-17T01:56:58;101379.50;;;21.91;47.24
61105;BME280;46987;32.638;-115.438;2022-10-17T01:59:30;101368.84;;;21.78;47.26
61105;BME280;46987;32.638;-115.438;2022-10-17T02:01:59;101394.59;;;22.05;46.24
61105;BME280;46987;32.638;-115.438;2022-10-17T02:04:31;101399.47;;;21.92;46.92
61105;BME280;46987;32.638;-115.438;2022-10-17T02:07:05;101391.84;;;21.82;46.73
61105;BME280;46987;32.638;-115.438;2022-10-17T02:09:33;101403.84;;;21.81;46.75
61105;BME280;46987;32.638;-115.438;2022-10-17T02:12:15;101396.59;;;21.75;46.94
61105;BME280;46987;32.638;-115.438;2022-10-17T02:14:58;101396.88;;;21.67;47.63
61105;BME280;46987;32.638;-115.438;2022-10-17T02:17:33;101407.38;;;21.82;47.24
61105;BME280;46987;32.638;-115.438;2022-10-17T02:20:12;101404.84;;;21.68;47.21
61105;BME280;46987;32.638;-115.438;2022-10-17T02:22:46;101412.91;;;21.63;47.83
61105;BME280;46987;32.638;-115.438;2022-10-17T02:25:22;101412.53;;;21.60;47.45
61105;BME280;46987;32.638;-115.438;2022-10-17T02:27:57;101424.38;;;21.54;47.62
61105;BME280;46987;32.638;-115.438;2022-10-17T02:30:33;101419.41;;;21.51;47.73
61105;BME280;46987;32.638;-115.438;2022-10-17T02:33:08;101412.00;;;21.40;48.14
61105;BME280;46987;32.638;-115.438;2022-10-17T02:35:40;101428.88;;;21.48;48.41
61105;BME280;46987;32.638;-115.438;2022-10-17T02:38:10;101431.22;;;21.45;49.01
61105;BME280;46987;32.638;-115.438;2022-10-17T02:40:39;101422.31;;;21.38;48.67
61105;BME280;46987;32.638;-115.438;2022-10-17T02:43:07;101438.66;;;21.38;48.28
61105;BME280;46987;32.638;-115.438;2022-10-17T02:45:36;101434.75;;;21.33;48.74
61105;BME280;46987;32.638;-115.438;2022-10-17T02:48:07;101439.25;;;21.28;49.08
61105;BME280;46987;32.638;-115.438;2022-10-17T02:50:44;101439.25;;;21.28;49.27
61105;BME280;46987;32.638;-115.438;2022-10-17T02:53:19;101436.34;;;21.23;49.64
61105;BME280;46987;32.638;-115.438;2022-10-17T02:55:55;101431.47;;;21.13;49.58
61105;BME280;46987;32.638;-115.438;2022-10-17T02:58:28;101426.88;;;21.07;50.03
61105;BME280;46987;32.638;-115.438;2022-10-17T03:00:57;101430.03;;;21.11;49.62
61105;BME280;46987;32.638;-115.438;2022-10-17T03:03:25;101444.28;;;21.13;50.21
61105;BME280;46987;32.638;-115.438;2022-10-17T03:05:55;101448.28;;;21.10;50.18
61105;BME280;46987;32.638;-115.438;2022-10-17T03:08:25;101442.66;;;21.05;49.78
61105;BME280;46987;32.638;-115.438;2022-10-17T03:10:52;101452.47;;;21.06;50.37
61105;BME280;46987;32.638;-115.438;2022-10-17T03:13:25;101449.00;;;20.99;50.19
61105;BME280;46987;32.638;-115.438;2022-10-17T03:15:56;101454.47;;;20.99;50.05
61105;BME280;46987;32.638;-115.438;2022-10-17T03:18:24;101444.94;;;20.90;50.17
61105;BME280;46987;32.638;-115.438;2022-10-17T03:20:57;101455.16;;;20.94;50.57
61105;BME280;46987;32.638;-115.438;2022-10-17T03:23:24;101461.31;;;20.90;50.67
61105;BME280;46987;32.638;-115.438;2022-10-17T03:25:52;101459.25;;;20.85;51.01
61105;BME280;46987;32.638;-115.438;2022-10-17T03:28:20;101458.03;;;20.81;51.40
61105;BME280;46987;32.638;-115.438;2022-10-17T03:30:47;101462.03;;;20.79;51.07
61105;BME280;46987;32.638;-115.438;2022-10-17T03:33:15;101456.44;;;20.74;51.56
61105;BME280;46987;32.638;-115.438;2022-10-17T03:35:42;101449.63;;;20.65;51.47
61105;BME280;46987;32.638;-115.438;2022-10-17T03:38:11;101454.66;;;20.68;51.39
61105;BME280;46987;32.638;-115.438;2022-10-17T03:40:39;101460.53;;;20.65;52.18
61105;BME280;46987;32.638;-115.438;2022-10-17T03:43:06;101452.66;;;20.56;51.99
61105;BME280;46987;32.638;-115.438;2022-10-17T03:45:33;101455.81;;;20.53;52.22
61105;BME280;46987;32.638;-115.438;2022-10-17T03:48:03;101463.97;;;20.53;53.16
61105;BME280;46987;32.638;-115.438;2022-10-17T03:50:31;101432.75;;;20.31;53.01
61105;BME280;46987;32.638;-115.438;2022-10-17T03:52:59;101465.78;;;20.41;53.12
61105;BME280;46987;32.638;-115.438;2022-10-17T03:55:29;101468.94;;;20.38;53.73
61105;BME280;46987;32.638;-115.438;2022-10-17T03:57:56;101475.88;;;20.34;53.35
61105;BME280;46987;32.638;-115.438;2022-10-17T04:00:23;101474.28;;;20.27;54.10
61105;BME280;46987;32.638;-115.438;2022-10-17T04:02:56;101474.50;;;20.25;54.05
61105;BME280;46987;32.638;-115.438;2022-10-17T04:05:26;101478.94;;;20.19;54.26
61105;BME280;46987;32.638;-115.438;2022-10-17T04:07:56;101473.94;;;20.16;54.58
61105;BME280;46987;32.638;-115.438;2022-10-17T04:10:40;101471.06;;;20.11;54.17
61105;BME280;46987;32.638;-115.438;2022-10-17T04:13:08;101484.44;;;20.13;53.90
61105;BME280;46987;32.638;-115.438;2022-10-17T04:15:35;101475.66;;;20.11;54.87
61105;BME280;46987;32.638;-115.438;2022-10-17T04:18:04;101478.38;;;20.11;54.32
61105;BME280;46987;32.638;-115.438;2022-10-17T04:20:32;101481.56;;;20.08;54.88
61105;BME280;46987;32.638;-115.438;2022-10-17T04:23:00;101485.09;;;20.08;54.91
61105;BME280;46987;32.638;-115.438;2022-10-17T04:25:28;101487.22;;;20.06;54.96
61105;BME280;46987;32.638;-115.438;2022-10-17T04:27:56;101481.16;;;20.04;55.35
61105;BME280;46987;32.638;-115.438;2022-10-17T04:30:24;101486.81;;;20.03;55.31
61105;BME280;46987;32.638;-115.438;2022-10-17T04:32:51;101495.81;;;20.03;55.07
61105;BME280;46987;32.638;-115.438;2022-10-17T04:35:22;101496.03;;;20.02;55.06
61105;BME280;46987;32.638;-115.438;2022-10-17T04:37:57;101490.84;;;20.00;55.10
61105;BME280;46987;32.638;-115.438;2022-10-17T04:40:24;101456.44;;;19.81;55.68
61105;BME280;46987;32.638;-115.438;2022-10-17T04:42:52;101486.50;;;19.93;55.83
61105;BME280;46987;32.638;-115.438;2022-10-17T04:45:29;101486.50;;;19.93;55.42
61105;BME280;46987;32.638;-115.438;2022-10-17T04:48:01;101466.28;;;19.82;55.49
61105;BME280;46987;32.638;-115.438;2022-10-17T04:50:28;101486.97;;;19.83;55.99
61105;BME280;46987;32.638;-115.438;2022-10-17T04:53:30;101475.75;;;19.73;56.47
61105;BME280;46987;32.638;-115.438;2022-10-17T04:55:58;101481.59;;;19.76;56.18
61105;BME280;46987;32.638;-115.438;2022-10-17T04:58:27;101482.84;;;19.74;56.25
61105;BME280;46987;32.638;-115.438;2022-10-17T05:00:58;101491.03;;;19.67;56.00
61105;BME280;46987;32.638;-115.438;2022-10-17T05:03:28;101489.81;;;19.70;56.77
61105;BME280;46987;32.638;-115.438;2022-10-17T05:05:56;101485.59;;;19.67;56.35
61105;BME280;46987;32.638;-115.438;2022-10-17T05:08:23;101477.06;;;19.57;56.87
61105;BME280;46987;32.638;-115.438;2022-10-17T05:10:50;101492.50;;;19.63;56.82
61105;BME280;46987;32.638;-115.438;2022-10-17T05:13:20;101484.81;;;19.60;56.63
61105;BME280;46987;32.638;-115.438;2022-10-17T05:15:48;101488.78;;;19.58;57.45
61105;BME280;46987;32.638;-115.438;2022-10-17T05:18:17;101488.41;;;19.54;56.92
61105;BME280;46987;32.638;-115.438;2022-10-17T05:20:44;101486.31;;;19.50;57.06
61105;BME280;46987;32.638;-115.438;2022-10-17T05:23:12;101495.13;;;19.45;57.42
61105;BME280;46987;32.638;-115.438;2022-10-17T05:25:42;101493.88;;;19.41;57.33
61105;BME280;46987;32.638;-115.438;2022-10-17T05:28:11;101490.56;;;19.39;57.41
61105;BME280;46987;32.638;-115.438;2022-10-17T05:30:40;101488.47;;;19.34;57.73
61105;BME280;46987;32.638;-115.438;2022-10-17T05:33:09;101493.09;;;19.34;57.68
61105;BME280;46987;32.638;-115.438;2022-10-17T05:35:38;101496.03;;;19.32;58.02
61105;BME280;46987;32.638;-115.438;2022-10-17T05:38:06;101492.50;;;19.32;57.91
61105;BME280;46987;32.638;-115.438;2022-10-17T05:40:34;101486.44;;;19.30;57.71
61105;BME280;46987;32.638;-115.438;2022-10-17T05:43:02;101488.31;;;19.29;57.50
61105;BME280;46987;32.638;-115.438;2022-10-17T05:45:30;101480.19;;;19.23;57.60
61105;BME280;46987;32.638;-115.438;2022-10-17T05:47:58;101487.69;;;19.27;57.68
61105;BME280;46987;32.638;-115.438;2022-10-17T05:50:26;101487.69;;;19.27;57.29
61105;BME280;46987;32.638;-115.438;2022-10-17T05:53:06;101478.31;;;19.23;57.24
61105;BME280;46987;32.638;-115.438;2022-10-17T05:55:39;101486.84;;;19.27;57.49
61105;BME280;46987;32.638;-115.438;2022-10-17T05:58:06;101485.19;;;19.26;57.28
61105;BME280;46987;32.638;-115.438;2022-10-17T06:00:38;101486.84;;;19.27;57.27
61105;BME280;46987;32.638;-115.438;2022-10-17T06:03:07;101492.72;;;19.24;57.35
61105;BME280;46987;32.638;-115.438;2022-10-17T06:05:34;101485.88;;;19.15;57.04
61105;BME280;46987;32.638;-115.438;2022-10-17T06:08:02;101478.75;;;19.14;57.64
61105;BME280;46987;32.638;-115.438;2022-10-17T06:10:35;101470.22;;;19.10;57.40
61105;BME280;46987;32.638;-115.438;2022-10-17T06:13:04;101476.47;;;19.11;57.27
61105;BME280;46987;32.638;-115.438;2022-10-17T06:15:32;101482.53;;;19.13;57.60
61105;BME280;46987;32.638;-115.438;2022-10-17T06:18:03;101484.19;;;19.14;57.64
61105;BME280;46987;32.638;-115.438;2022-10-17T06:20:30;101479.63;;;19.08;57.80
61105;BME280;46987;32.638;-115.438;2022-10-17T06:22:58;101486.94;;;19.07;57.58
61105;BME280;46987;32.638;-115.438;2022-10-17T06:25:57;101479.00;;;19.06;58.10
61105;BME280;46987;32.638;-115.438;2022-10-17T06:28:25;101482.38;;;19.01;57.96
61105;BME280;46987;32.638;-115.438;2022-10-17T06:30:52;101466.91;;;18.88;58.27
61105;BME280;46987;32.638;-115.438;2022-10-17T06:33:20;101483.41;;;18.93;58.56
61105;BME280;46987;32.638;-115.438;2022-10-17T06:35:53;101477.75;;;18.88;58.40
61105;BME280;46987;32.638;-115.438;2022-10-17T06:38:22;101467.56;;;18.84;58.20
61105;BME280;46987;32.638;-115.438;2022-10-17T06:40:52;101472.34;;;18.82;58.66
61105;BME280;46987;32.638;-115.438;2022-10-17T06:43:21;101479.47;;;18.83;58.60
61105;BME280;46987;32.638;-115.438;2022-10-17T06:46:08;101481.34;;;18.82;58.91
61105;BME280;46987;32.638;-115.438;2022-10-17T06:48:38;101482.63;;;18.80;58.94
61105;BME280;46987;32.638;-115.438;2022-10-17T06:51:17;101482.84;;;18.78;58.93
61105;BME280;46987;32.638;-115.438;2022-10-17T06:53:52;101478.03;;;18.74;58.94
61105;BME280;46987;32.638;-115.438;2022-10-17T06:56:37;101474.47;;;18.73;58.77
61105;BME280;46987;32.638;-115.438;2022-10-17T06:59:29;101476.59;;;18.71;59.08
61105;BME280;46987;32.638;-115.438;2022-10-17T07:02:19;101483.06;;;18.70;58.78
61105;BME280;46987;32.638;-115.438;2022-10-17T07:04:46;101464.28;;;18.62;59.17
61105;BME280;46987;32.638;-115.438;2022-10-17T07:07:14;101470.13;;;18.59;59.19
61105;BME280;46987;32.638;-115.438;2022-10-17T07:09:41;101482.25;;;18.63;59.27
61105;BME280;46987;32.638;-115.438;2022-10-17T07:12:09;101473.47;;;18.54;59.13
61105;BME280;46987;32.638;-115.438;2022-10-17T07:14:44;101477.66;;;18.57;58.96
61105;BME280;46987;32.638;-115.438;2022-10-17T07:17:13;101464.09;;;18.50;59.13
61105;BME280;46987;32.638;-115.438;2022-10-17T07:19:41;101479.34;;;18.58;59.28
61105;BME280;46987;32.638;-115.438;2022-10-17T07:22:12;101475.78;;;18.57;59.27
61105;BME280;46987;32.638;-115.438;2022-10-17T07:24:43;101477.03;;;18.55;59.37
61105;BME280;46987;32.638;-115.438;2022-10-17T07:27:33;101468.47;;;18.51;59.49
61105;BME280;46987;32.638;-115.438;2022-10-17T07:30:03;101478.91;;;18.54;59.26
61105;BME280;46987;32.638;-115.438;2022-10-17T07:32:38;101482.88;;;18.52;59.15
61105;BME280;46987;32.638;-115.438;2022-10-17T07:35:07;101484.97;;;18.50;59.21
61105;BME280;46987;32.638;-115.438;2022-10-17T07:37:35;101491.66;;;18.47;59.32
61105;BME280;46987;32.638;-115.438;2022-10-17T07:40:04;101491.88;;;18.46;59.06
61105;BME280;46987;32.638;-115.438;2022-10-17T07:42:32;101477.88;;;18.36;58.91
61105;BME280;46987;32.638;-115.438;2022-10-17T07:44:59;101499.81;;;18.41;59.15
61105;BME280;46987;32.638;-115.438;2022-10-17T07:47:32;101488.34;;;18.32;58.82
61105;BME280;46987;32.638;-115.438;2022-10-17T07:50:01;101497.50;;;18.38;59.03
61105;BME280;46987;32.638;-115.438;2022-10-17T07:52:29;101503.13;;;18.36;59.18
61105;BME280;46987;32.638;-115.438;2022-10-17T07:54:57;101501.50;;;18.35;59.08
61105;BME280;46987;32.638;-115.438;2022-10-17T07:57:24;101499.81;;;18.27;59.07
61105;BME280;46987;32.638;-115.438;2022-10-17T07:59:52;101500.63;;;18.28;59.11
61105;BME280;46987;32.638;-115.438;2022-10-17T08:02:22;101496.69;;;18.31;59.20
61105;BME280;46987;32.638;-115.438;2022-10-17T08:04:51;101494.81;;;18.24;59.38
61105;BME280;46987;32.638;-115.438;2022-10-17T08:07:19;101491.63;;;18.21;59.33
61105;BME280;46987;32.638;-115.438;2022-10-17T08:09:47;101504.81;;;18.24;59.47
61105;BME280;46987;32.638;-115.438;2022-10-17T08:12:14;101495.19;;;18.15;59.74
61105;BME280;46987;32.638;-115.438;2022-10-17T08:14:42;101488.31;;;18.12;59.40
61105;BME280;46987;32.638;-115.438;2022-10-17T08:17:10;101503.13;;;18.16;59.82
61105;BME280;46987;32.638;-115.438;2022-10-17T08:19:38;101498.34;;;18.12;59.92
61105;BME280;46987;32.638;-115.438;2022-10-17T08:22:07;101507.06;;;18.14;60.10
61105;BME280;46987;32.638;-115.438;2022-10-17T08:24:35;101502.47;;;18.14;60.29
61105;BME280;46987;32.638;-115.438;2022-10-17T08:27:02;101505.63;;;18.11;60.22
61105;BME280;46987;32.638;-115.438;2022-10-17T08:29:35;101489.13;;;18.06;60.37
61105;BME280;46987;32.638;-115.438;2022-10-17T08:32:03;101504.16;;;18.09;60.46
61105;BME280;46987;32.638;-115.438;2022-10-17T08:34:30;101494.56;;;18.00;60.30
61105;BME280;46987;32.638;-115.438;2022-10-17T08:36:57;101508.13;;;18.06;60.57
61105;BME280;46987;32.638;-115.438;2022-10-17T08:39:26;101502.28;;;18.03;61.08
61105;BME280;46987;32.638;-115.438;2022-10-17T08:42:02;101489.56;;;17.97;61.03
61105;BME280;46987;32.638;-115.438;2022-10-17T08:44:40;101487.25;;;17.94;61.08
61105;BME280;46987;32.638;-115.438;2022-10-17T08:47:14;101494.75;;;17.98;61.20
61105;BME280;46987;32.638;-115.438;2022-10-17T08:49:44;101486.59;;;17.92;61.55
61105;BME280;46987;32.638;-115.438;2022-10-17T08:52:20;101489.56;;;17.90;61.48
61105;BME280;46987;32.638;-115.438;2022-10-17T08:54:51;101497.25;;;17.93;61.55
61105;BME280;46987;32.638;-115.438;2022-10-17T08:57:19;101493.91;;;17.91;61.50
61105;BME280;46987;32.638;-115.438;2022-10-17T08:59:50;101459.09;;;17.75;61.61
61105;BME280;46987;32.638;-115.438;2022-10-17T09:05:27;101487.66;;;17.90;61.70
61105;BME280;46987;32.638;-115.438;2022-10-17T09:08:04;101484.53;;;17.87;61.99
61105;BME280;46987;32.638;-115.438;2022-10-17T09:10:45;101482.44;;;17.82;62.04
61105;BME280;46987;32.638;-115.438;2022-10-17T09:13:25;101481.81;;;17.87;61.79
61105;BME280;46987;32.638;-115.438;2022-10-17T09:16:21;101484.72;;;17.85;62.29
61105;BME280;46987;32.638;-115.438;2022-10-17T09:18:59;101482.84;;;17.79;62.14
61105;BME280;46987;32.638;-115.438;2022-10-17T09:21:35;101480.97;;;17.80;62.57
61105;BME280;46987;32.638;-115.438;2022-10-17T09:24:12;101482.22;;;17.71;62.65
61105;BME280;46987;32.638;-115.438;2022-10-17T09:26:44;101481.81;;;17.74;62.82
61105;BME280;46987;32.638;-115.438;2022-10-17T09:29:18;101477.63;;;17.71;62.42
61105;BME280;46987;32.638;-115.438;2022-10-17T09:31:51;101474.69;;;17.66;62.93
61105;BME280;46987;32.638;-115.438;2022-10-17T09:34:21;101482.00;;;17.66;62.85
61105;BME280;46987;32.638;-115.438;2022-10-17T09:36:49;101476.97;;;17.63;62.91
61105;BME280;46987;32.638;-115.438;2022-10-17T09:39:18;101479.88;;;17.61;63.02
61105;BME280;46987;32.638;-115.438;2022-10-17T09:41:50;101465.72;;;17.59;63.34
61105;BME280;46987;32.638;-115.438;2022-10-17T09:44:19;101468.44;;;17.59;63.08
61105;BME280;46987;32.638;-115.438;2022-10-17T09:47:03;101461.53;;;17.57;63.22
61105;BME280;46987;32.638;-115.438;2022-10-17T09:49:33;101463.22;;;17.58;62.90
61105;BME280;46987;32.638;-115.438;2022-10-17T09:52:02;101474.25;;;17.56;63.04
61105;BME280;46987;32.638;-115.438;2022-10-17T09:54:39;101468.84;;;17.56;63.08
61105;BME280;46987;32.638;-115.438;2022-10-17T09:57:10;101469.03;;;17.55;63.26
61105;BME280;46987;32.638;-115.438;2022-10-17T09:59:39;101464.03;;;17.52;63.00
61105;BME280;46987;32.638;-115.438;2022-10-17T10:02:16;101461.34;;;17.52;63.19
61105;BME280;46987;32.638;-115.438;2022-10-17T10:04:58;101458.81;;;17.50;63.13
61105;BME280;46987;32.638;-115.438;2022-10-17T10:07:28;101442.31;;;17.45;63.01
61105;BME280;46987;32.638;-115.438;2022-10-17T10:09:56;101452.97;;;17.46;63.06
61105;BME280;46987;32.638;-115.438;2022-10-17T10:12:26;101446.50;;;17.47;62.80
61105;BME280;46987;32.638;-115.438;2022-10-17T10:14:55;101453.16;;;17.45;63.01
61105;BME280;46987;32.638;-115.438;2022-10-17T10:17:36;101441.22;;;17.39;63.14
61105;BME280;46987;32.638;-115.438;2022-10-17T10:20:25;101456.06;;;17.43;62.77
61105;BME280;46987;32.638;-115.438;2022-10-17T10:23:20;101441.22;;;17.39;63.16
61105;BME280;46987;32.638;-115.438;2022-10-17T10:25:54;101455.22;;;17.43;62.97
61105;BME280;46987;32.638;-115.438;2022-10-17T10:28:25;101446.84;;;17.38;62.83
61105;BME280;46987;32.638;-115.438;2022-10-17T10:30:55;101435.41;;;17.29;62.80
61105;BME280;46987;32.638;-115.438;2022-10-17T10:33:25;101443.72;;;17.34;63.06
61105;BME280;46987;32.638;-115.438;2022-10-17T10:35:58;101447.47;;;17.33;63.02
61105;BME280;46987;32.638;-115.438;2022-10-17T10:38:28;101444.56;;;17.28;62.75
61105;BME280;46987;32.638;-115.438;2022-10-17T10:41:00;101448.94;;;17.29;63.27
61105;BME280;46987;32.638;-115.438;2022-10-17T10:43:32;101444.75;;;17.27;63.06
61105;BME280;46987;32.638;-115.438;2022-10-17T10:46:01;101442.88;;;17.21;62.98
61105;BME280;46987;32.638;-115.438;2022-10-17T10:48:33;101405.47;;;16.96;62.94
61105;BME280;46987;32.638;-115.438;2022-10-17T10:51:04;101449.50;;;17.18;62.80
61105;BME280;46987;32.638;-115.438;2022-10-17T10:53:40;101453.50;;;17.22;63.17
61105;BME280;46987;32.638;-115.438;2022-10-17T10:56:13;101436.59;;;17.13;62.82
61105;BME280;46987;32.638;-115.438;2022-10-17T10:58:52;101451.59;;;17.16;63.21
61105;BME280;46987;32.638;-115.438;2022-10-17T11:01:27;101444.28;;;17.17;63.38
61105;BME280;46987;32.638;-115.438;2022-10-17T11:04:05;101452.41;;;17.17;63.36
61105;BME280;46987;32.638;-115.438;2022-10-17T11:06:35;101450.13;;;17.13;63.41
61105;BME280;46987;32.638;-115.438;2022-10-17T11:09:14;101453.69;;;17.14;63.86
61105;BME280;46987;32.638;-115.438;2022-10-17T11:11:52;101454.72;;;17.13;63.55
61105;BME280;46987;32.638;-115.438;2022-10-17T11:14:37;101439.88;;;17.02;63.80
61105;BME280;46987;32.638;-115.438;2022-10-17T11:17:14;101448.25;;;17.07;63.47
61105;BME280;46987;32.638;-115.438;2022-10-17T11:19:48;101451.16;;;17.06;64.11
61105;BME280;46987;32.638;-115.438;2022-10-17T11:22:22;101451.53;;;17.03;63.73
61105;BME280;46987;32.638;-115.438;2022-10-17T11:24:55;101442.78;;;17.01;64.06
61105;BME280;46987;32.638;-115.438;2022-10-17T11:27:25;101449.25;;;17.00;63.59
61105;BME280;46987;32.638;-115.438;2022-10-17T11:29:56;101438.38;;;16.93;63.73
61105;BME280;46987;32.638;-115.438;2022-10-17T11:32:27;101448.63;;;16.98;63.60
61105;BME280;46987;32.638;-115.438;2022-10-17T11:35:03;101444.84;;;16.92;63.57
61105;BME280;46987;32.638;-115.438;2022-10-17T11:37:35;101441.31;;;16.92;63.47
61105;BME280;46987;32.638;-115.438;2022-10-17T11:40:08;101456.72;;;16.98;63.89
61105;BME280;46987;32.638;-115.438;2022-10-17T11:42:48;101431.47;;;16.84;63.31
61105;BME280;46987;32.638;-115.438;2022-10-17T11:45:20;101446.72;;;16.92;63.39
61105;BME280;46987;32.638;-115.438;2022-10-17T11:47:50;101444.41;;;16.89;63.85
61105;BME280;46987;32.638;-115.438;2022-10-17T11:50:24;101463.81;;;16.92;63.62
61105;BME280;46987;32.638;-115.438;2022-10-17T11:52:54;101454.19;;;16.90;63.85
61105;BME280;46987;32.638;-115.438;2022-10-17T11:55:24;101462.50;;;16.88;64.10
61105;BME280;46987;32.638;-115.438;2022-10-17T11:58:00;101457.72;;;16.84;63.75
61105;BME280;46987;32.638;-115.438;2022-10-17T12:00:44;101456.88;;;16.83;63.88
61105;BME280;46987;32.638;-115.438;2022-10-17T12:03:22;101464.16;;;16.83;63.76
61105;BME280;46987;32.638;-115.438;2022-10-17T12:05:54;101462.88;;;16.79;63.94
61105;BME280;46987;32.638;-115.438;2022-10-17T12:08:27;101460.38;;;16.77;63.93
61105;BME280;46987;32.638;-115.438;2022-10-17T12:11:01;101447.00;;;16.69;64.35
61105;BME280;46987;32.638;-115.438;2022-10-17T12:13:48;101460.38;;;16.77;64.41
61105;BME280;46987;32.638;-115.438;2022-10-17T12:16:41;101466.00;;;16.76;64.50
61105;BME280;46987;32.638;-115.438;2022-10-17T12:19:29;101465.13;;;16.68;64.25
61105;BME280;46987;32.638;-115.438;2022-10-17T12:22:04;101470.53;;;16.68;64.87
61105;BME280;46987;32.638;-115.438;2022-10-17T12:24:43;101456.94;;;16.62;64.97
61105;BME280;46987;32.638;-115.438;2022-10-17T12:27:37;101480.34;;;16.69;64.51
61105;BME280;46987;32.638;-115.438;2022-10-17T12:30:19;101482.75;;;16.64;65.11
61105;BME280;46987;32.638;-115.438;2022-10-17T12:33:02;101484.63;;;16.64;65.24
61105;BME280;46987;32.638;-115.438;2022-10-17T12:35:35;101481.69;;;16.59;64.86
61105;BME280;46987;32.638;-115.438;2022-10-17T12:38:24;101492.31;;;16.60;64.92
61105;BME280;46987;32.638;-115.438;2022-10-17T12:41:02;101488.13;;;16.58;65.47
61105;BME280;46987;32.638;-115.438;2022-10-17T12:43:50;101475.19;;;16.53;65.18
61105;BME280;46987;32.638;-115.438;2022-10-17T12:46:43;101484.78;;;16.56;65.01
61105;BME280;46987;32.638;-115.438;2022-10-17T12:49:23;101455.25;;;16.33;65.43
61105;BME280;46987;32.638;-115.438;2022-10-17T12:55:11;101488.09;;;16.51;65.55
61105;BME280;46987;32.638;-115.438;2022-10-17T12:57:50;101489.75;;;16.52;65.43
61105;BME280;46987;32.638;-115.438;2022-10-17T13:00:28;101488.94;;;16.52;65.17
61105;BME280;46987;32.638;-115.438;2022-10-17T13:03:03;101493.50;;;16.51;64.91